Time;durP1;ratioP1;P1;durP2;ratioP2;P2;SDS_P1;SDS_P2;PMS_P1;PMS_P2;Temp;Humidity;BMP_temperature;BMP_pressure;BME280_temperature;BME280_humidity;BME280_pressure;Samples;Min_cycle;Max_cycle;Signal;HPM_P1;HPM_P2
2021/10/14 00:01:03;;;;;;;6.03;4.32;;;;;;;;;;4962264;28;20035;-74
2021/10/14 00:03:30;;;;;;;5.38;4.13;;;;;;;;;;4954599;28;20078;-74
2021/10/14 00:05:56;;;;;;;6.80;5.07;;;;;;;;;;4956105;28;20059;-74
2021/10/14 00:08:22;;;;;;;5.38;4.63;;;;;;;;;;4956443;28;20027;-74
2021/10/14 00:10:48;;;;;;;5.90;4.35;;;;;;;;;;4950419;28;20051;-73
2021/10/14 00:13:14;;;;;;;7.95;5.18;;;;;;;;;;4954922;28;20031;-74
2021/10/14 00:15:41;;;;;;;7.82;5.50;;;;;;;;;;4956102;28;20121;-74
2021/10/14 00:18:08;;;;;;;10.00;5.38;;;;;;;;;;5041168;23;20121;-74
2021/10/14 00:20:37;;;;;;;11.82;6.05;;;;;;;;;;4969502;28;20042;-75
2021/10/14 00:23:03;;;;;;;7.60;5.55;;;;;;;;;;4954124;28;20031;-73
2021/10/14 00:25:29;;;;;;;5.57;4.40;;;;;;;;;;4972744;28;20024;-74
2021/10/14 00:28:22;;;;;;;;;;;;;;;;;;;;;
2021/10/14 00:30:48;;;;;;;8.70;5.10;;;;;;;;;;4974849;28;20037;-73
2021/10/14 00:33:14;;;;;;;7.80;5.13;;;;;;;;;;4974554;28;20035;-74
2021/10/14 00:35:41;;;;;;;9.23;4.90;;;;;;;;;;4973135;28;20061;-74
2021/10/14 00:38:17;;;;;;;;;;;;;;;;;;;;;
2021/10/14 00:40:45;;;;;;;7.18;5.22;;;;;;;;;;4977452;28;20034;-74
2021/10/14 00:43:12;;;;;;;8.50;5.70;;;;;;;;;;4985881;28;20054;-72
2021/10/14 00:45:39;;;;;;;6.72;5.10;;;;;;;;;;4973617;28;20039;-74
2021/10/14 00:48:05;;;;;;;7.53;5.50;;;;;;;;;;4955175;28;20030;-73
2021/10/14 00:50:34;;;;;;;8.70;5.93;;;;;;;;;;4955615;28;20035;-74
2021/10/14 00:53:02;;;;;;;11.65;5.30;;;;;;;;;;4958052;28;20031;-74
2021/10/14 00:55:30;;;;;;;8.70;5.78;;;;;;;;;;4966865;28;20027;-73
2021/10/14 00:57:58;;;;;;;12.40;5.97;;;;;;;;;;4955668;28;20038;-74
2021/10/14 01:00:24;;;;;;;9.73;5.45;;;;;;;;;;4939499;28;20027;-73
2021/10/14 01:02:50;;;;;;;8.65;5.57;;;;;;;;;;4955125;28;20031;-73
2021/10/14 01:05:41;;;;;;;9.32;6.07;;;;;;;;;;4945707;28;20039;-74
2021/10/14 01:08:07;;;;;;;6.47;5.40;;;;;;;;;;4955216;28;20035;-74
2021/10/14 01:10:34;;;;;;;6.50;5.30;;;;;;;;;;4955796;28;20149;-74
2021/10/14 01:13:01;;;;;;;6.63;5.10;;;;;;;;;;4955461;28;20034;-73
2021/10/14 01:15:33;;;;;;;8.90;5.63;;;;;;;;;;4960792;28;20026;-73
2021/10/14 01:18:04;;;;;;;7.20;5.70;;;;;;;;;;4947360;29;20405;-73
2021/10/14 01:20:32;;;;;;;7.47;5.38;;;;;;;;;;4937256;29;20042;-73
2021/10/14 01:22:58;;;;;;;6.97;5.43;;;;;;;;;;4961964;28;20039;-73
2021/10/14 01:25:25;;;;;;;6.25;5.32;;;;;;;;;;4954771;28;20045;-72
2021/10/14 01:27:54;;;;;;;7.95;5.43;;;;;;;;;;4955233;28;20038;-74
2021/10/14 01:30:20;;;;;;;7.05;5.40;;;;;;;;;;4938155;28;20034;-73
2021/10/14 01:32:49;;;;;;;7.03;5.35;;;;;;;;;;4949717;28;20063;-73
2021/10/14 01:35:15;;;;;;;7.47;5.38;;;;;;;;;;4954573;28;20086;-74
2021/10/14 01:37:41;;;;;;;6.60;5.63;;;;;;;;;;4955959;28;20086;-74
2021/10/14 01:40:08;;;;;;;7.70;5.60;;;;;;;;;;4954557;28;20027;-73
2021/10/14 01:42:34;;;;;;;7.88;5.60;;;;;;;;;;4954763;28;20030;-73
2021/10/14 01:45:03;;;;;;;10.80;5.85;;;;;;;;;;4962196;28;20027;-72
2021/10/14 01:47:35;;;;;;;8.07;5.95;;;;;;;;;;4945098;28;20039;-74
2021/10/14 01:50:14;;;;;;;9.05;5.95;;;;;;;;;;4944995;28;20039;-73
2021/10/14 01:52:40;;;;;;;9.07;5.75;;;;;;;;;;4955835;28;20031;-72
2021/10/14 01:55:07;;;;;;;8.80;5.88;;;;;;;;;;4954560;28;20062;-73
2021/10/14 01:57:33;;;;;;;10.52;5.85;;;;;;;;;;4955861;28;20031;-73
2021/10/14 01:59:59;;;;;;;6.65;5.63;;;;;;;;;;4956083;28;20023;-74
2021/10/14 02:02:30;;;;;;;8.35;5.88;;;;;;;;;;4954966;28;20093;-73
2021/10/14 02:04:56;;;;;;;6.57;5.60;;;;;;;;;;4940366;28;20425;-73
2021/10/14 02:07:22;;;;;;;10.45;5.90;;;;;;;;;;4955695;28;20035;-74
2021/10/14 02:09:48;;;;;;;11.30;6.20;;;;;;;;;;4954189;28;20032;-73
2021/10/14 02:12:14;;;;;;;6.93;5.70;;;;;;;;;;4954651;28;20110;-73
2021/10/14 02:14:40;;;;;;;7.78;5.60;;;;;;;;;;4955676;28;20019;-73
2021/10/14 02:17:09;;;;;;;11.40;6.50;;;;;;;;;;4954028;28;20054;-74
2021/10/14 02:19:36;;;;;;;8.90;6.18;;;;;;;;;;4971907;28;20110;-73
2021/10/14 02:22:03;;;;;;;7.90;5.90;;;;;;;;;;4951581;28;20024;-73
2021/10/14 02:24:29;;;;;;;7.30;6.13;;;;;;;;;;4954497;28;20071;-74
2021/10/14 02:26:58;;;;;;;7.97;6.10;;;;;;;;;;4967711;28;20089;-73
2021/10/14 02:29:24;;;;;;;6.63;5.85;;;;;;;;;;4954278;28;20027;-74
2021/10/14 02:31:50;;;;;;;7.85;6.55;;;;;;;;;;4953732;28;20070;-74
2021/10/14 02:34:29;;;;;;;10.25;6.40;;;;;;;;;;4958544;28;20448;-74
2021/10/14 02:36:55;;;;;;;7.50;5.75;;;;;;;;;;4940734;29;20375;-73
2021/10/14 02:39:21;;;;;;;8.88;6.30;;;;;;;;;;4940135;29;20393;-74
2021/10/14 02:41:49;;;;;;;10.15;6.45;;;;;;;;;;4962788;28;20078;-74
2021/10/14 02:44:18;;;;;;;10.65;6.78;;;;;;;;;;4945101;28;20073;-74
2021/10/14 02:47:10;;;;;;;9.18;6.88;;;;;;;;;;4963171;28;20035;-73
2021/10/14 02:49:37;;;;;;;10.32;7.40;;;;;;;;;;4961734;28;20389;-73
2021/10/14 02:52:43;;;;;;;11.05;6.43;;;;;;;;;;4962664;28;20034;-74
2021/10/14 02:55:10;;;;;;;8.82;6.75;;;;;;;;;;4899658;29;20493;-73
2021/10/14 02:57:36;;;;;;;9.85;7.07;;;;;;;;;;4906290;29;20045;-73
2021/10/14 03:00:03;;;;;;;11.48;7.60;;;;;;;;;;4914767;29;20119;-72
2021/10/14 03:02:50;;;;;;;8.63;7.25;;;;;;;;;;4907318;29;20033;-74
2021/10/14 03:05:17;;;;;;;9.23;6.97;;;;;;;;;;4879288;29;20131;-74
2021/10/14 03:07:43;;;;;;;8.48;6.93;;;;;;;;;;4880608;29;20053;-72
2021/10/14 03:10:11;;;;;;;11.95;8.20;;;;;;;;;;4879713;29;20089;-72
2021/10/14 03:12:37;;;;;;;12.98;8.32;;;;;;;;;;4879685;29;20040;-74
2021/10/14 03:15:07;;;;;;;14.80;8.93;;;;;;;;;;4880039;29;20051;-74
2021/10/14 03:17:33;;;;;;;11.98;7.93;;;;;;;;;;4879295;29;20172;-72
2021/10/14 03:20:27;;;;;;;8.30;6.70;;;;;;;;;;4879269;29;20057;-74
2021/10/14 03:22:53;;;;;;;11.23;6.07;;;;;;;;;;4878765;29;20041;-74
2021/10/14 03:25:19;;;;;;;8.57;6.93;;;;;;;;;;4880545;29;20045;-73
2021/10/14 03:27:46;;;;;;;8.93;6.47;;;;;;;;;;4890600;29;20045;-73
2021/10/14 03:30:12;;;;;;;8.52;6.70;;;;;;;;;;4879245;29;20574;-72
2021/10/14 03:32:38;;;;;;;8.75;6.75;;;;;;;;;;4895533;29;20041;-73
2021/10/14 03:35:04;;;;;;;7.53;6.72;;;;;;;;;;4897564;29;20043;-74
2021/10/14 03:37:30;;;;;;;10.65;7.13;;;;;;;;;;4950437;28;20086;-74
2021/10/14 03:43:05;;;;;;;9.05;7.68;;;;;;;;;;4945762;28;20701;-73
2021/10/14 03:45:31;;;;;;;9.30;6.97;;;;;;;;;;4957273;28;20027;-73
2021/10/14 03:48:28;;;;;;;9.25;7.22;;;;;;;;;;4952620;28;20061;-74
2021/10/14 03:50:57;;;;;;;11.02;7.28;;;;;;;;;;4939107;28;20442;-72
2021/10/14 03:53:23;;;;;;;11.65;7.40;;;;;;;;;;4954937;28;20150;-74
2021/10/14 03:55:49;;;;;;;8.70;7.43;;;;;;;;;;4956864;28;20020;-70
2021/10/14 03:58:15;;;;;;;14.75;7.38;;;;;;;;;;4960242;28;20023;-74
2021/10/14 04:00:41;;;;;;;13.95;8.05;;;;;;;;;;4958516;28;20042;-74
2021/10/14 04:03:40;;;;;;;;;;;;;;;;;;;;;
2021/10/14 04:06:07;;;;;;;7.82;6.95;;;;;;;;;;4889111;29;20043;-72
2021/10/14 04:08:34;;;;;;;8.60;7.40;;;;;;;;;;4895882;29;20108;-73
2021/10/14 04:11:24;;;;;;;8.35;7.45;;;;;;;;;;4901653;29;20108;-74
2021/10/14 04:13:50;;;;;;;10.38;7.85;;;;;;;;;;4899426;29;20047;-72
2021/10/14 04:16:27;;;;;;;12.52;7.45;;;;;;;;;;4898165;29;20156;-74
2021/10/14 04:18:54;;;;;;;11.65;7.75;;;;;;;;;;4878519;29;20052;-74
2021/10/14 04:21:20;;;;;;;9.30;7.85;;;;;;;;;;4897173;29;20119;-74
2021/10/14 04:23:46;;;;;;;11.10;8.20;;;;;;;;;;4896992;29;20032;-74
2021/10/14 04:26:20;;;;;;;10.57;7.65;;;;;;;;;;4896691;29;20045;-74
2021/10/14 04:28:46;;;;;;;8.55;7.30;;;;;;;;;;4895598;29;20040;-74
2021/10/14 04:31:12;;;;;;;10.20;7.80;;;;;;;;;;4893064;29;20123;-71
2021/10/14 04:33:38;;;;;;;11.57;7.60;;;;;;;;;;4896678;29;20074;-73
2021/10/14 04:36:04;;;;;;;8.95;7.57;;;;;;;;;;4894408;29;20502;-73
2021/10/14 04:38:31;;;;;;;8.90;7.57;;;;;;;;;;4895890;29;20036;-73
2021/10/14 04:40:57;;;;;;;9.60;7.93;;;;;;;;;;4895050;29;20108;-73
2021/10/14 04:43:23;;;;;;;13.40;7.78;;;;;;;;;;4934442;29;20075;-74
2021/10/14 04:45:52;;;;;;;9.80;8.05;;;;;;;;;;4953338;29;20024;-73
2021/10/14 04:48:19;;;;;;;13.00;7.90;;;;;;;;;;4939533;29;20036;-72
2021/10/14 04:50:45;;;;;;;12.38;8.30;;;;;;;;;;4951492;29;20489;-72
2021/10/14 04:53:22;;;;;;;8.90;7.72;;;;;;;;;;4957707;29;20039;-74
2021/10/14 04:55:48;;;;;;;8.65;7.72;;;;;;;;;;4955575;28;20107;-73
2021/10/14 04:58:14;;;;;;;9.38;7.85;;;;;;;;;;4954784;28;20106;-74
2021/10/14 05:00:40;;;;;;;11.85;8.32;;;;;;;;;;4957051;28;20042;-70
2021/10/14 05:03:06;;;;;;;10.43;8.75;;;;;;;;;;4954941;29;20070;-73
2021/10/14 05:05:34;;;;;;;14.52;9.10;;;;;;;;;;4959603;28;20023;-72
2021/10/14 05:08:00;;;;;;;14.07;8.80;;;;;;;;;;4961962;28;20160;-73
2021/10/14 05:10:26;;;;;;;13.35;8.32;;;;;;;;;;4954938;29;20054;-72
2021/10/14 05:12:52;;;;;;;12.30;8.35;;;;;;;;;;4954864;29;20078;-74
2021/10/14 05:15:27;;;;;;;17.05;9.45;;;;;;;;;;4954842;29;20020;-73
2021/10/14 05:18:09;;;;;;;13.50;8.80;;;;;;;;;;4937238;29;20103;-73
2021/10/14 05:20:35;;;;;;;12.43;8.82;;;;;;;;;;4954858;29;20511;-71
2021/10/14 05:23:07;;;;;;;16.45;11.30;;;;;;;;;;4954635;29;20031;-72
2021/10/14 05:25:33;;;;;;;11.50;9.50;;;;;;;;;;4949797;28;20027;-72
2021/10/14 05:28:00;;;;;;;11.63;9.38;;;;;;;;;;4945658;28;20115;-72
2021/10/14 05:30:26;;;;;;;16.35;10.40;;;;;;;;;;4955900;28;20035;-74
2021/10/14 05:32:52;;;;;;;17.63;12.30;;;;;;;;;;4949520;29;20035;-70
2021/10/14 05:35:18;;;;;;;32.92;20.40;;;;;;;;;;4945106;28;20059;-69
2021/10/14 05:37:44;;;;;;;26.65;15.88;;;;;;;;;;4954633;28;20027;-77
2021/10/14 05:40:11;;;;;;;15.68;11.65;;;;;;;;;;4942834;29;20383;-73
2021/10/14 05:42:40;;;;;;;18.58;11.82;;;;;;;;;;4957268;28;20031;-75
2021/10/14 05:45:06;;;;;;;20.65;11.30;;;;;;;;;;4953936;28;20031;-69
2021/10/14 05:47:32;;;;;;;16.30;9.95;;;;;;;;;;4953937;28;20058;-70
2021/10/14 05:49:59;;;;;;;10.73;9.10;;;;;;;;;;4952810;29;20054;-70
2021/10/14 05:52:25;;;;;;;17.33;8.93;;;;;;;;;;4953224;29;20042;-68
2021/10/14 05:54:51;;;;;;;9.20;8.18;;;;;;;;;;4953207;28;20053;-69
2021/10/14 05:57:19;;;;;;;10.20;8.13;;;;;;;;;;4953283;28;20027;-69
2021/10/14 05:59:45;;;;;;;9.57;8.15;;;;;;;;;;4954160;29;20385;-68
2021/10/14 06:02:11;;;;;;;11.07;8.80;;;;;;;;;;4954235;29;20087;-67
2021/10/14 06:04:37;;;;;;;10.07;8.30;;;;;;;;;;4953433;29;20027;-71
2021/10/14 06:07:03;;;;;;;10.15;8.80;;;;;;;;;;4948214;28;20038;-70
2021/10/14 06:09:29;;;;;;;13.27;8.20;;;;;;;;;;4952992;28;20520;-68
2021/10/14 06:11:58;;;;;;;33.70;8.93;;;;;;;;;;4957426;28;20505;-77
2021/10/14 06:14:28;;;;;;;11.63;8.95;;;;;;;;;;4954835;28;20051;-74
2021/10/14 06:16:54;;;;;;;14.65;9.20;;;;;;;;;;4937214;29;20556;-75
2021/10/14 06:19:20;;;;;;;16.17;9.52;;;;;;;;;;4941662;28;20139;-74
2021/10/14 06:21:46;;;;;;;11.68;9.68;;;;;;;;;;4957654;28;20027;-73
2021/10/14 06:24:12;;;;;;;26.95;15.70;;;;;;;;;;4957932;28;20114;-71
2021/10/14 06:26:40;;;;;;;17.17;10.10;;;;;;;;;;4963899;28;20062;-80
2021/10/14 06:29:08;;;;;;;38.80;12.13;;;;;;;;;;4951920;29;20031;-76
2021/10/14 06:31:48;;;;;;;153.55;16.85;;;;;;;;;;4972816;28;20031;-78
2021/10/14 06:34:14;;;;;;;28.08;10.07;;;;;;;;;;4952735;29;20024;-77
2021/10/14 06:36:43;;;;;;;15.65;8.65;;;;;;;;;;4959150;28;20401;-70
2021/10/14 06:39:09;;;;;;;12.68;8.65;;;;;;;;;;4961294;28;20031;-75
2021/10/14 06:41:36;;;;;;;10.75;8.75;;;;;;;;;;4958308;28;20043;-74
2021/10/14 06:44:03;;;;;;;12.25;8.45;;;;;;;;;;4941776;28;20572;-71
2021/10/14 06:46:32;;;;;;;13.90;9.07;;;;;;;;;;4937310;29;20051;-75
2021/10/14 06:49:01;;;;;;;13.80;8.90;;;;;;;;;;4961283;28;20051;-70
2021/10/14 06:51:27;;;;;;;14.38;8.93;;;;;;;;;;4939242;28;20040;-75
2021/10/14 06:53:53;;;;;;;25.30;21.45;;;;;;;;;;4968737;28;20016;-73
2021/10/14 06:56:19;;;;;;;17.17;13.85;;;;;;;;;;4967602;28;20023;-72
2021/10/14 06:58:45;;;;;;;52.63;34.55;;;;;;;;;;4962999;28;20031;-70
2021/10/14 07:01:15;;;;;;;47.30;31.92;;;;;;;;;;4958351;28;20031;-73
2021/10/14 07:03:41;;;;;;;45.30;31.90;;;;;;;;;;4947585;28;20030;-73
2021/10/14 07:06:07;;;;;;;20.80;15.05;;;;;;;;;;4958042;28;20019;-70
2021/10/14 07:11:51;;;;;;;34.75;25.40;;;;;;;;;;4882769;29;20067;-70
2021/10/14 07:14:17;;;;;;;17.02;10.90;;;;;;;;;;4872824;29;20033;-67
2021/10/14 07:16:43;;;;;;;16.17;11.50;;;;;;;;;;4878925;29;20045;-70
2021/10/14 07:19:09;;;;;;;19.88;13.52;;;;;;;;;;4877965;29;20060;-72
2021/10/14 07:21:35;;;;;;;27.17;14.13;;;;;;;;;;4876015;29;20415;-69
2021/10/14 07:24:01;;;;;;;15.95;12.52;;;;;;;;;;4873895;29;20134;-73
2021/10/14 07:26:32;;;;;;;15.80;11.50;;;;;;;;;;4876543;29;20568;-73
2021/10/14 07:29:00;;;;;;;24.65;15.80;;;;;;;;;;4879261;29;20042;-77
2021/10/14 07:31:26;;;;;;;21.58;12.98;;;;;;;;;;4881197;29;20128;-74
2021/10/14 07:33:52;;;;;;;29.73;14.77;;;;;;;;;;4880831;29;20038;-64
2021/10/14 07:36:18;;;;;;;27.52;22.13;;;;;;;;;;4875400;29;20069;-71
2021/10/14 07:38:44;;;;;;;31.65;23.95;;;;;;;;;;4876857;29;20033;-69
2021/10/14 07:41:12;;;;;;;37.83;29.27;;;;;;;;;;4873637;29;20086;-71
2021/10/14 07:43:39;;;;;;;19.67;16.08;;;;;;;;;;4885363;29;20036;-76
2021/10/14 07:46:11;;;;;;;15.45;12.23;;;;;;;;;;4880443;29;20033;-73
2021/10/14 07:48:53;;;;;;;20.05;14.43;;;;;;;;;;4903326;29;20044;-70
2021/10/14 07:51:30;;;;;;;13.80;11.45;;;;;;;;;;4926719;29;20032;-79
2021/10/14 07:53:56;;;;;;;16.80;12.65;;;;;;;;;;4930256;29;20486;-75
2021/10/14 07:56:22;;;;;;;18.35;13.13;;;;;;;;;;4921556;29;20052;-75
2021/10/14 07:58:51;;;;;;;18.27;13.80;;;;;;;;;;4908872;29;20556;-74
2021/10/14 08:01:20;;;;;;;21.02;15.38;;;;;;;;;;4913299;29;20028;-71
2021/10/14 08:03:49;;;;;;;99.28;17.45;;;;;;;;;;4912445;29;20066;-72
2021/10/14 08:06:15;;;;;;;24.00;14.27;;;;;;;;;;4917620;29;20489;-75
2021/10/14 08:08:42;;;;;;;22.27;15.45;;;;;;;;;;4911883;29;20044;-75
2021/10/14 08:11:08;;;;;;;17.50;13.82;;;;;;;;;;4909295;29;20405;-70
2021/10/14 08:13:35;;;;;;;18.38;13.70;;;;;;;;;;4902769;29;20036;-70
2021/10/14 08:16:03;;;;;;;22.08;15.55;;;;;;;;;;4911519;29;20032;-70
2021/10/14 08:18:48;;;;;;;18.88;15.30;;;;;;;;;;4913929;29;20086;-70
2021/10/14 08:21:15;;;;;;;37.78;24.85;;;;;;;;;;4950318;28;20738;-70
2021/10/14 08:23:42;;;;;;;27.88;19.30;;;;;;;;;;4939783;28;20126;-70
2021/10/14 08:26:09;;;;;;;26.77;19.35;;;;;;;;;;4956555;28;20030;-69
2021/10/14 08:28:35;;;;;;;30.55;22.08;;;;;;;;;;4960722;28;20031;-70
2021/10/14 08:31:31;;;;;;;;;;;;;;;;;;;;;
2021/10/14 08:34:01;;;;;;;32.33;20.27;;;;;;;;;;4943528;29;20098;-73
2021/10/14 08:36:29;;;;;;;49.05;24.95;;;;;;;;;;4960677;29;20031;-77
2021/10/14 08:39:01;;;;;;;37.33;21.00;;;;;;;;;;4969536;29;20089;-73
2021/10/14 08:41:30;;;;;;;31.27;19.67;;;;;;;;;;4971607;28;20039;-75
2021/10/14 08:43:58;;;;;;;24.98;17.10;;;;;;;;;;4957340;28;20094;-77
2021/10/14 08:46:41;;;;;;;29.02;19.65;;;;;;;;;;4963284;28;20027;-75
2021/10/14 08:49:30;;;;;;;30.55;17.63;;;;;;;;;;4951232;28;20038;-75
2021/10/14 08:51:56;;;;;;;25.85;18.25;;;;;;;;;;4938634;29;20039;-73
2021/10/14 08:54:23;;;;;;;24.42;19.05;;;;;;;;;;4945505;29;20051;-74
2021/10/14 08:56:51;;;;;;;26.70;20.67;;;;;;;;;;4965547;28;20110;-74
2021/10/14 08:59:21;;;;;;;21.65;18.52;;;;;;;;;;4936268;29;20024;-74
2021/10/14 09:02:05;;;;;;;22.63;16.90;;;;;;;;;;4963832;28;20097;-73
2021/10/14 09:04:32;;;;;;;21.30;15.80;;;;;;;;;;4943326;28;20051;-74
2021/10/14 09:07:12;;;;;;;23.35;17.13;;;;;;;;;;4959632;28;20477;-68
2021/10/14 09:09:41;;;;;;;34.67;18.55;;;;;;;;;;4957166;28;20180;-70
2021/10/14 09:12:08;;;;;;;18.65;16.27;;;;;;;;;;4956471;28;20413;-70
2021/10/14 09:14:54;;;;;;;19.10;15.07;;;;;;;;;;4968064;28;20024;-71
2021/10/14 09:17:43;;;;;;;21.77;16.13;;;;;;;;;;4951884;29;20045;-76
2021/10/14 09:20:31;;;;;;;19.77;15.50;;;;;;;;;;4880659;29;20059;-75
2021/10/14 09:23:01;;;;;;;23.13;16.40;;;;;;;;;;4871827;29;20045;-74
2021/10/14 09:25:50;;;;;;;24.00;17.02;;;;;;;;;;4880998;29;20381;-76
2021/10/14 09:28:42;;;;;;;21.17;16.77;;;;;;;;;;4842779;29;20057;-76
2021/10/14 09:31:22;;;;;;;26.90;20.20;;;;;;;;;;4770346;30;20040;-74
2021/10/14 09:33:48;;;;;;;30.38;19.95;;;;;;;;;;4771235;30;20600;-73
2021/10/14 09:36:49;;;;;;;22.70;17.38;;;;;;;;;;4783142;30;20047;-73
2021/10/14 09:39:15;;;;;;;21.92;16.67;;;;;;;;;;4748554;30;20056;-73
2021/10/14 09:41:49;;;;;;;21.98;14.60;;;;;;;;;;4738141;30;20117;-77
2021/10/14 09:44:22;;;;;;;;;;;;;;;;;;4733320;30;20037;-75
2021/10/14 09:47:14;;;;;;;22.85;16.67;;;;;;;;;;4752388;30;19950;-73
2021/10/14 09:49:40;;;;;;;25.30;16.55;;;;;;;;;;4734607;30;20068;-74
2021/10/14 09:52:06;;;;;;;23.25;17.05;;;;;;;;;;4739194;30;20810;-77
2021/10/14 09:58:14;;;;;;;18.80;15.33;;;;;;;;;;4751940;29;20040;-71
2021/10/14 10:00:42;;;;;;;;;;;;;;;;;;4727461;30;20288;-73
2021/10/14 10:03:11;;;;;;;20.15;15.40;;;;;;;;;;4750052;30;19914;-75
2021/10/14 10:05:39;;;;;;;19.45;15.75;;;;;;;;;;4774541;29;20447;-74
2021/10/14 10:08:11;;;;;;;18.02;15.55;;;;;;;;;;4806976;29;20079;-72
2021/10/14 10:10:52;;;;;;;24.83;17.27;;;;;;;;;;4824880;29;20042;-76
2021/10/14 10:13:19;;;;;;;17.30;15.02;;;;;;;;;;4851356;29;20047;-68
2021/10/14 10:15:48;;;;;;;21.25;18.38;;;;;;;;;;4897109;29;20044;-80
2021/10/14 10:18:43;;;;;;;26.13;16.58;;;;;;;;;;4880437;29;20922;-73
2021/10/14 10:21:31;;;;;;;22.83;17.98;;;;;;;;;;4851736;29;20125;-74
2021/10/14 10:24:19;;;;;;;25.50;17.30;;;;;;;;;;4863839;29;20067;-78
2021/10/14 10:27:06;;;;;;;27.88;20.23;;;;;;;;;;4866416;29;20061;-77
2021/10/14 10:29:41;;;;;;;19.90;15.93;;;;;;;;;;4900553;29;20049;-77
2021/10/14 10:32:07;;;;;;;18.13;13.52;;;;;;;;;;4895925;29;20132;-77
2021/10/14 10:34:45;;;;;;;17.48;14.13;;;;;;;;;;4925243;29;20057;-72
2021/10/14 10:37:21;;;;;;;16.83;13.23;;;;;;;;;;4890052;29;20028;-68
2021/10/14 10:39:47;;;;;;;16.60;14.05;;;;;;;;;;4884878;29;20025;-69
2021/10/14 10:42:17;;;;;;;17.88;14.73;;;;;;;;;;4892888;29;20475;-72
2021/10/14 10:44:47;;;;;;;18.08;14.20;;;;;;;;;;4916942;29;20044;-75
2021/10/14 10:47:31;;;;;;;19.65;15.07;;;;;;;;;;4898424;29;20060;-78
2021/10/14 10:49:57;;;;;;;18.60;13.20;;;;;;;;;;4906880;29;20032;-75
2021/10/14 10:52:33;;;;;;;19.05;14.05;;;;;;;;;;4905189;29;20060;-77
2021/10/14 10:55:00;;;;;;;15.88;12.23;;;;;;;;;;4916037;29;20012;-77
2021/10/14 10:57:51;;;;;;;13.48;11.98;;;;;;;;;;4951610;28;20462;-78
2021/10/14 11:00:17;;;;;;;16.85;11.20;;;;;;;;;;4937889;29;20032;-75
2021/10/14 11:02:44;;;;;;;14.55;13.05;;;;;;;;;;4957843;28;20039;-73
2021/10/14 11:05:11;;;;;;;15.38;12.75;;;;;;;;;;4955544;28;20473;-69
2021/10/14 11:07:38;;;;;;;14.93;13.40;;;;;;;;;;4960024;28;20059;-73
2021/10/14 11:10:05;;;;;;;20.98;16.95;;;;;;;;;;4956708;28;20026;-68
2021/10/14 11:12:31;;;;;;;23.25;17.05;;;;;;;;;;4955358;28;20034;-68
2021/10/14 11:14:57;;;;;;;18.85;16.23;;;;;;;;;;4956022;28;20031;-69
2021/10/14 11:17:26;;;;;;;16.65;14.88;;;;;;;;;;4962811;28;20473;-68
2021/10/14 11:20:08;;;;;;;17.15;15.35;;;;;;;;;;4952738;28;20094;-68
2021/10/14 11:22:34;;;;;;;21.38;17.48;;;;;;;;;;4954554;28;20035;-68
2021/10/14 11:25:03;;;;;;;18.27;14.93;;;;;;;;;;4956760;28;20023;-69
2021/10/14 11:27:30;;;;;;;17.48;15.57;;;;;;;;;;4958108;28;20031;-70
2021/10/14 11:30:17;;;;;;;17.02;14.18;;;;;;;;;;4956673;28;20082;-71
2021/10/14 11:32:57;;;;;;;18.08;15.00;;;;;;;;;;4955036;28;20075;-74
2021/10/14 11:35:27;;;;;;;21.17;15.98;;;;;;;;;;4942982;28;20031;-71
2021/10/14 11:38:05;;;;;;;20.50;17.05;;;;;;;;;;4954579;28;20166;-72
2021/10/14 11:40:35;;;;;;;18.27;15.30;;;;;;;;;;4954747;28;20027;-70
2021/10/14 11:43:01;;;;;;;18.30;15.20;;;;;;;;;;4953955;28;20035;-71
2021/10/14 11:45:27;;;;;;;18.45;14.55;;;;;;;;;;4953737;28;20031;-72
2021/10/14 11:47:53;;;;;;;17.92;14.75;;;;;;;;;;4938205;28;20441;-73
2021/10/14 11:50:24;;;;;;;20.15;15.65;;;;;;;;;;4952228;28;20024;-71
2021/10/14 11:53:00;;;;;;;17.35;14.77;;;;;;;;;;4950386;28;20023;-73
2021/10/14 11:55:26;;;;;;;17.85;14.43;;;;;;;;;;4936137;29;20456;-74
2021/10/14 11:57:56;;;;;;;17.77;14.00;;;;;;;;;;4953297;28;20033;-73
2021/10/14 12:00:22;;;;;;;19.25;14.80;;;;;;;;;;4952767;28;20098;-71
2021/10/14 12:02:48;;;;;;;21.02;13.68;;;;;;;;;;4956212;28;20023;-70
2021/10/14 12:05:17;;;;;;;17.58;13.60;;;;;;;;;;4963172;28;20031;-70
2021/10/14 12:07:44;;;;;;;20.67;15.82;;;;;;;;;;4955652;28;20090;-72
2021/10/14 12:10:30;;;;;;;16.58;13.20;;;;;;;;;;4957115;28;20026;-74
2021/10/14 12:13:03;;;;;;;20.83;16.00;;;;;;;;;;4959167;28;20062;-71
2021/10/14 12:15:29;;;;;;;24.50;14.95;;;;;;;;;;4958163;28;20027;-70
2021/10/14 12:17:55;;;;;;;29.63;16.98;;;;;;;;;;4953380;28;20030;-75
2021/10/14 12:20:22;;;;;;;32.28;20.80;;;;;;;;;;4962835;28;20056;-75
2021/10/14 12:22:55;;;;;;;21.52;14.93;;;;;;;;;;4956768;28;20062;-75
2021/10/14 12:25:25;;;;;;;22.10;13.38;;;;;;;;;;4958369;28;20370;-74
2021/10/14 12:27:53;;;;;;;19.95;12.77;;;;;;;;;;4937604;28;20031;-75
2021/10/14 12:33:23;;;;;;;16.05;13.60;;;;;;;;;;4966828;28;20046;-75
2021/10/14 12:35:54;;;;;;;16.75;13.65;;;;;;;;;;4954842;28;20393;-75
2021/10/14 12:38:20;;;;;;;63.05;35.42;;;;;;;;;;4948358;29;20031;-75
2021/10/14 12:41:03;;;;;;;36.70;21.90;;;;;;;;;;4962409;28;20063;-72
2021/10/14 12:43:36;;;;;;;37.30;26.15;;;;;;;;;;4952653;28;20132;-69
2021/10/14 12:46:22;;;;;;;21.75;13.70;;;;;;;;;;4955054;28;20035;-73
2021/10/14 12:49:03;;;;;;;17.02;13.50;;;;;;;;;;4953338;28;20047;-73
2021/10/14 12:51:29;;;;;;;26.15;16.60;;;;;;;;;;4958202;28;20062;-74
2021/10/14 12:53:59;;;;;;;18.15;14.38;;;;;;;;;;4953951;28;20027;-73
2021/10/14 12:56:40;;;;;;;15.25;12.85;;;;;;;;;;4952840;28;20537;-72
2021/10/14 12:59:07;;;;;;;22.35;12.73;;;;;;;;;;4961489;28;20404;-73
2021/10/14 13:01:34;;;;;;;17.95;14.15;;;;;;;;;;4961076;28;20551;-70
2021/10/14 13:04:00;;;;;;;16.02;12.50;;;;;;;;;;4964743;28;20030;-67
2021/10/14 13:06:26;;;;;;;22.02;15.23;;;;;;;;;;4957649;28;20042;-72
2021/10/14 13:08:57;;;;;;;15.85;13.10;;;;;;;;;;4963385;28;20489;-69
2021/10/14 13:11:39;;;;;;;17.45;12.02;;;;;;;;;;4967632;28;20035;-79
2021/10/14 13:14:37;;;;;;;16.70;12.10;;;;;;;;;;4943963;29;20023;-72
2021/10/14 13:19:40;;;;;;;14.82;11.07;;;;;;;;;;4035493;26;20049;-76
2021/10/14 13:24:42;;;;;;;17.80;11.30;;;;;;;;;;5987611;23;20969;-78
2021/10/14 13:27:11;;;;;;;16.85;11.52;;;;;;;;;;4934907;29;20765;-75
2021/10/14 13:29:37;;;;;;;13.55;11.48;;;;;;;;;;4925882;29;20040;-72
2021/10/14 13:32:04;;;;;;;21.42;11.93;;;;;;;;;;4933719;29;20091;-76
2021/10/14 13:34:36;;;;;;;16.63;11.35;;;;;;;;;;4973628;23;20059;-73
2021/10/14 13:37:25;;;;;;;13.35;11.35;;;;;;;;;;4961067;28;20074;-71
2021/10/14 13:39:53;;;;;;;15.95;11.95;;;;;;;;;;4965576;29;20047;-76
2021/10/14 13:42:22;;;;;;;12.38;10.57;;;;;;;;;;4951913;28;20031;-71
2021/10/14 13:44:48;;;;;;;13.50;10.32;;;;;;;;;;4954873;28;20038;-68
2021/10/14 13:47:14;;;;;;;11.15;9.95;;;;;;;;;;4952792;28;20476;-68
2021/10/14 13:49:40;;;;;;;13.60;11.73;;;;;;;;;;4953561;28;20027;-73
2021/10/14 13:52:06;;;;;;;23.27;14.45;;;;;;;;;;4953496;28;20023;-73
2021/10/14 13:54:32;;;;;;;16.77;13.57;;;;;;;;;;4952322;28;20035;-69
2021/10/14 13:57:00;;;;;;;15.27;13.23;;;;;;;;;;4948143;28;20023;-72
2021/10/14 13:59:27;;;;;;;15.00;12.38;;;;;;;;;;4950029;28;20164;-67
2021/10/14 14:01:53;;;;;;;16.70;11.45;;;;;;;;;;4953073;28;20425;-69
2021/10/14 14:04:19;;;;;;;13.98;10.93;;;;;;;;;;4951342;28;20050;-74
2021/10/14 14:06:45;;;;;;;15.25;12.15;;;;;;;;;;4952127;28;20102;-73
2021/10/14 14:09:11;;;;;;;16.38;13.25;;;;;;;;;;4949575;28;20090;-70
2021/10/14 14:11:38;;;;;;;15.10;12.18;;;;;;;;;;4952825;28;20164;-71
2021/10/14 14:14:04;;;;;;;17.08;10.52;;;;;;;;;;4952534;28;20382;-74
2021/10/14 14:16:30;;;;;;;11.73;10.40;;;;;;;;;;4952581;28;20031;-74
2021/10/14 14:18:57;;;;;;;11.63;10.10;;;;;;;;;;4957663;28;20040;-69
2021/10/14 14:21:23;;;;;;;20.67;10.88;;;;;;;;;;4954964;28;20019;-73
2021/10/14 14:23:54;;;;;;;12.35;11.15;;;;;;;;;;4952458;28;20082;-71
2021/10/14 14:26:20;;;;;;;17.13;11.30;;;;;;;;;;4953185;28;20301;-68
2021/10/14 14:28:48;;;;;;;11.73;10.52;;;;;;;;;;4951525;28;20062;-73
2021/10/14 14:31:14;;;;;;;17.98;11.10;;;;;;;;;;4951907;28;20031;-72
2021/10/14 14:33:41;;;;;;;13.88;12.43;;;;;;;;;;4956284;28;20075;-67
2021/10/14 14:36:08;;;;;;;20.65;12.23;;;;;;;;;;4954217;28;20094;-73
2021/10/14 14:38:34;;;;;;;14.85;12.15;;;;;;;;;;4961005;28;20019;-68
2021/10/14 14:41:00;;;;;;;19.77;13.52;;;;;;;;;;4954746;28;20071;-70
2021/10/14 14:43:28;;;;;;;15.30;13.45;;;;;;;;;;4957286;28;20101;-73
2021/10/14 14:45:59;;;;;;;19.42;13.07;;;;;;;;;;4958695;28;20148;-72
2021/10/14 14:48:26;;;;;;;15.52;13.25;;;;;;;;;;4956070;28;20032;-72
2021/10/14 14:50:53;;;;;;;14.38;12.15;;;;;;;;;;4955212;28;20103;-70
2021/10/14 14:53:21;;;;;;;13.75;12.35;;;;;;;;;;4955792;28;20028;-68
2021/10/14 14:55:47;;;;;;;15.30;12.45;;;;;;;;;;4956475;28;20015;-70
2021/10/14 14:58:14;;;;;;;17.13;12.98;;;;;;;;;;4955376;28;20027;-74
2021/10/14 15:00:43;;;;;;;15.88;13.13;;;;;;;;;;4956261;28;20039;-72
2021/10/14 15:03:09;;;;;;;15.85;13.85;;;;;;;;;;4956036;28;20053;-70
2021/10/14 15:05:35;;;;;;;14.40;12.65;;;;;;;;;;4956377;28;20039;-74